Latest Weather Observations for Hindmarsh Island

IDS60801

Issued at 8:01 pm CST Tuesday 3 May 2016 (issued every 30 minutes, with the page automatically refreshed every 10 minutes)

About weather observations | Map of weather stations | Latest weather observations for SA | Other Formats
Station Details ID: 023894 Name: HINDMARSH ISLAND AWS Lat: -35.52 Lon: 138.82 Height: 11.0 m
Data from the previous 72 hours. | See also: Recent months at Hindmarsh Island
Date/Time
CST
Temp
°C
App
Temp
°C
Dew
Point
Rel
Hum
%
Delta-T
°C
Wind Press
QNH
hPa
Press
MSL
hPa
Rain
since 9 am
mm
Dir
 
Spd
km/h
Gust
km/h
Spd
kts
Gust
kts
03/08:00pm 14.9 11.0 9.3 69 2.9 W 20 24 11 13 1011.6 - 1.8
03/07:30pm 15.0 10.1 10.0 72 2.6 WSW 26 39 14 21 1011.1 - 1.8
03/07:00pm 15.0 8.5 10.4 74 2.4 SW 35 44 19 24 1010.4 - 1.8
03/06:30pm 15.5 11.6 8.7 64 3.5 W 19 28 10 15 1010.1 - 1.8
03/06:00pm 15.3 12.1 9.9 70 2.8 WNW 17 22 9 12 1009.4 1009.4 1.8
03/05:30pm 15.3 11.9 10.5 73 2.5 W 19 24 10 13 1008.9 - 1.8
03/05:00pm 15.3 11.7 10.5 73 2.5 W 20 28 11 15 1008.5 - 1.8
03/04:30pm 15.1 11.1 10.5 74 2.4 WSW 22 32 12 17 1008.2 - 1.6
03/04:02pm 14.6 9.0 11.4 81 1.7 WSW 32 50 17 27 1007.9 - 1.6
03/04:00pm 14.5 8.3 11.3 81 1.7 WSW 35 50 19 27 1007.8 - 1.6
03/03:38pm 14.7 7.8 11.7 82 1.6 SW 39 59 21 32 1007.3 - 1.6
03/03:37pm 14.7 7.8 11.7 82 1.6 SW 39 59 21 32 1007.3 - 1.6
03/03:30pm 15.6 10.4 12.9 84 1.5 WSW 32 43 17 23 1007.2 - 1.6
03/03:00pm 14.6 9.0 12.1 85 1.4 WSW 33 48 18 26 1006.7 1006.6 1.6
03/02:46pm 14.8 10.4 12.8 88 1.1 WSW 28 39 15 21 1006.4 - 1.6
03/02:30pm 14.7 7.4 12.7 88 1.1 SW 43 52 23 28 1006.1 - 1.4
03/02:00pm 15.8 10.7 13.6 87 1.2 WSW 33 43 18 23 1005.7 - 1.2
03/01:30pm 15.2 7.6 12.5 84 1.5 SW 44 57 24 31 1005.7 - 0.6
03/01:23pm 16.8 9.0 11.9 73 2.7 SW 44 56 24 30 1005.6 - 0.6
03/01:22pm 16.8 9.0 11.9 73 2.7 SW 44 56 24 30 1005.6 - 0.6
03/01:00pm 18.0 12.7 11.1 64 3.7 W 30 50 16 27 1005.3 - 0.6
03/12:59pm 18.1 13.2 11.4 65 3.7 W 28 50 15 27 1005.4 - 0.6
03/12:58pm 18.1 13.2 11.4 65 3.7 W 28 50 15 27 1005.4 - 0.6
03/12:30pm 18.6 12.9 11.9 65 3.7 W 33 44 18 24 1005.5 - 0.6
03/12:00pm 17.3 11.0 12.4 73 2.7 W 37 54 20 29 1005.7 1005.7 0.6
03/11:33am 19.5 11.8 10.0 54 5.1 W 41 59 22 32 1005.4 - 0.6
03/11:32am 19.5 11.8 10.0 54 5.1 W 41 59 22 32 1005.4 - 0.6
03/11:30am 19.4 11.2 9.6 53 5.2 W 43 59 23 32 1005.2 - 0.6
03/11:00am 19.3 11.2 10.0 55 5.0 W 43 63 23 34 1005.3 - 0.6
03/10:31am 18.5 11.3 10.6 60 4.3 W 39 57 21 31 1005.1 - 0.6
03/10:30am 18.5 11.3 10.6 60 4.3 W 39 57 21 31 1005.1 - 0.6
03/10:00am 17.1 11.8 12.4 74 2.6 W 32 43 17 23 1005.2 - 0.6
03/09:30am 15.9 9.7 12.8 82 1.7 W 37 52 20 28 1005.0 - 0.6
03/09:00am 16.4 11.4 13.9 85 1.4 W 33 56 18 30 1004.3 1004.3 0.6
03/08:42am 16.7 12.6 13.8 83 1.6 WNW 28 46 15 25 1004.3 - 0.2
03/08:30am 16.6 12.2 14.1 85 1.4 W 30 39 16 21 1004.1 - 0.2
03/08:00am 16.5 11.4 13.8 84 1.5 NW 33 48 18 26 1003.8 - 0.0
03/07:30am 16.6 11.3 13.1 80 2.0 NW 33 48 18 26 1003.5 - 0.0
03/07:05am 17.3 11.0 12.2 72 2.8 NW 37 57 20 31 1003.2 - 0.0
03/07:04am 17.3 11.0 12.2 72 2.8 NW 37 57 20 31 1003.2 - 0.0
03/07:00am 17.3 11.0 12.4 73 2.7 NW 37 54 20 29 1003.3 - 0.0
03/06:30am 17.2 11.0 12.5 74 2.6 NW 37 56 20 30 1003.4 - 0.0
03/06:10am 17.6 10.8 12.1 70 3.0 NW 39 61 21 33 1003.4 - 0.0
03/06:09am 17.6 10.8 12.1 70 3.0 NW 39 61 21 33 1003.4 - 0.0
03/06:00am 17.5 10.3 12.0 70 3.0 NW 41 56 22 30 1003.5 1003.4 0.0
03/05:52am 17.4 10.2 11.9 70 3.0 NW 41 59 22 32 1003.4 - 0.0
03/05:50am 17.5 10.3 12.0 70 3.0 NW 41 59 22 32 1003.3 - 0.0
03/05:30am 17.4 11.7 11.9 70 3.0 NW 33 46 18 25 1003.9 - 0.0
03/05:07am 17.2 12.4 11.7 70 3.0 NW 28 48 15 26 1003.7 - 0.0
03/05:06am 17.2 12.4 11.7 70 3.0 NW 28 48 15 26 1003.7 - 0.0
03/05:00am 17.0 12.2 11.7 71 2.9 NW 28 43 15 23 1004.0 - 0.0
03/04:30am 17.3 10.4 11.6 69 3.1 NW 39 57 21 31 1003.7 - 0.0
03/04:06am 16.7 11.2 12.0 74 2.6 NW 32 50 17 27 1004.0 - 0.0
03/04:00am 16.7 10.7 12.0 74 2.6 NNW 35 50 19 27 1003.8 - 0.0
03/03:44am 17.2 10.4 12.1 72 2.8 NW 39 59 21 32 1004.3 - 0.0
03/03:43am 17.2 10.4 12.1 72 2.8 NW 39 59 21 32 1004.3 - 0.0
03/03:30am 17.5 11.7 11.5 68 3.3 NW 33 50 18 27 1004.3 - 0.0
03/03:07am 17.4 11.3 11.9 70 3.0 NW 35 54 19 29 1004.3 - 0.0
03/03:06am 17.4 11.3 11.9 70 3.0 NW 35 54 19 29 1004.3 - 0.0
03/03:00am 17.5 10.7 11.8 69 3.1 NNW 39 54 21 29 1004.4 1004.3 0.0
03/02:42am 17.3 10.0 11.6 69 3.1 NW 41 59 22 32 1004.5 - 0.0
03/02:41am 17.3 10.0 11.6 69 3.1 NW 41 59 22 32 1004.5 - 0.0
03/02:30am 17.4 9.6 11.2 67 3.4 NW 43 59 23 32 1004.5 - 0.0
03/02:05am 17.4 9.9 11.0 66 3.4 NW 41 59 22 32 1004.7 - 0.0
03/02:04am 17.4 9.9 11.0 66 3.4 NW 41 59 22 32 1004.7 - 0.0
03/02:00am 17.4 10.3 11.0 66 3.4 NW 39 56 21 30 1004.7 - 0.0
03/01:45am 17.5 11.3 11.3 67 3.4 NW 35 54 19 29 1005.1 - 0.0
03/01:33am 17.4 11.1 11.2 67 3.4 NW 35 54 19 29 1005.9 - 0.0
03/01:30am 17.5 10.9 11.3 67 3.4 NW 37 54 20 29 1005.8 - 0.0
03/01:12am 17.5 10.9 11.3 67 3.4 NW 37 56 20 30 1006.3 - 0.0
03/01:11am 17.6 11.0 11.4 67 3.4 NW 37 56 20 30 1006.3 - 0.0
03/01:00am 17.6 11.0 11.2 66 3.5 NW 37 54 20 29 1006.5 - 0.0
03/12:36am 17.5 11.3 11.5 68 3.3 NW 35 54 19 29 1006.7 - 0.0
03/12:35am 17.5 11.3 11.5 68 3.3 NW 35 54 19 29 1006.7 - 0.0
03/12:30am 17.4 11.6 11.4 68 3.3 NW 33 46 18 25 1006.9 - 0.0
03/12:05am 17.4 12.3 11.9 70 3.0 NW 30 48 16 26 1007.1 - 0.0
03/12:04am 17.4 12.3 11.9 70 3.0 NW 30 48 16 26 1007.1 - 0.0
03/12:00am 17.4 11.9 11.7 69 3.1 NW 32 48 17 26 1007.1 1007.2 0.0
 
Date/Time
CST
Temp
°C
App
Temp
°C
Dew
Point
Rel
Hum
%
Delta-T
°C
Wind Press
QNH
hPa
Press
MSL
hPa
Rain
since 9 am
mm
Dir
 
Spd
km/h
Gust
km/h
Spd
kts
Gust
kts
02/11:30pm 17.7 11.5 11.5 67 3.4 NW 35 56 19 30 1007.7 - 0.0
02/11:00pm 17.6 10.2 11.2 66 3.5 NW 41 59 22 32 1008.0 - 0.0
02/10:30pm 17.6 10.6 11.4 67 3.4 NW 39 59 21 32 1007.7 - 0.0
02/10:00pm 17.3 10.8 11.8 70 3.0 NW 37 56 20 30 1008.1 - 0.0
02/09:39pm 17.4 10.6 11.9 70 3.0 NW 39 57 21 31 1008.0 - 0.0
02/09:37pm 17.4 10.6 11.9 70 3.0 NW 39 57 21 31 1007.9 - 0.0
02/09:30pm 17.3 10.5 11.8 70 3.0 NW 39 56 21 30 1008.1 - 0.0
02/09:00pm 16.5 10.6 11.2 71 2.9 NW 33 43 18 23 1008.4 1008.4 0.0
02/08:30pm 17.1 11.6 12.0 72 2.8 NW 32 52 17 28 1008.7 - 0.0
02/08:02pm 17.2 10.9 11.2 68 3.2 WNW 35 61 19 33 1008.8 - 0.0
02/08:01pm 17.2 10.9 11.2 68 3.2 WNW 35 61 19 33 1008.8 - 0.0
02/08:00pm 17.0 10.8 11.3 69 3.1 WNW 35 50 19 27 1009.0 - 0.0
02/07:42pm 17.1 11.3 11.6 70 3.0 NW 33 54 18 29 1008.9 - 0.0
02/07:41pm 17.1 11.3 11.6 70 3.0 NW 33 54 18 29 1008.9 - 0.0
02/07:30pm 17.0 12.2 11.5 70 3.0 NW 28 41 15 22 1009.0 - 0.0
02/07:09pm 16.8 10.9 11.3 70 3.0 NW 33 52 18 28 1008.9 - 0.0
02/07:08pm 16.8 10.9 11.3 70 3.0 NW 33 52 18 28 1008.9 - 0.0
02/07:00pm 17.1 10.6 11.6 70 3.0 NW 37 52 20 28 1008.8 - 0.0
02/06:30pm 17.6 12.2 10.9 65 3.6 WNW 30 50 16 27 1008.7 - 0.0
02/06:04pm 18.6 13.5 10.7 60 4.3 NW 28 56 15 30 1008.3 - 0.0
02/06:03pm 18.6 13.5 10.7 60 4.3 NW 28 56 15 30 1008.3 - 0.0
02/06:00pm 18.5 13.5 11.1 62 4.0 NW 28 41 15 22 1008.6 1008.5 0.0
02/05:30pm 18.0 13.5 11.3 65 3.6 NW 26 35 14 19 1008.3 - 0.0
02/05:00pm 18.3 12.6 11.1 63 3.9 NW 32 41 17 22 1008.4 - 0.0
02/04:30pm 19.0 13.0 10.8 59 4.4 NW 33 48 18 26 1008.5 - 0.0
02/04:05pm 19.3 13.2 10.3 56 4.8 NW 33 52 18 28 1008.8 - 0.0
02/04:03pm 19.2 13.1 10.5 57 4.7 NW 33 52 18 28 1008.9 - 0.0
02/04:00pm 18.9 12.1 10.5 58 4.5 NW 37 52 20 28 1008.8 - 0.0
02/03:37pm 19.4 13.4 10.7 57 4.7 NW 33 52 18 28 1008.9 - 0.0
02/03:30pm 19.3 12.5 10.6 57 4.7 NW 37 54 20 29 1009.0 - 0.0
02/03:06pm 19.3 12.9 10.6 57 4.7 NW 35 54 19 29 1009.2 - 0.0
02/03:05pm 19.3 12.9 10.6 57 4.7 NW 35 54 19 29 1009.2 - 0.0
02/03:00pm 19.2 12.9 11.0 59 4.5 NW 35 50 19 27 1009.2 1009.2 0.0
02/02:39pm 19.6 13.4 11.4 59 4.5 NW 35 54 19 29 1009.4 - 0.0
02/02:38pm 19.6 13.4 11.4 59 4.5 NW 35 54 19 29 1009.4 - 0.0
02/02:30pm 18.9 11.7 10.7 59 4.4 NW 39 56 21 30 1009.4 - 0.0
02/02:25pm 19.1 12.9 10.1 56 4.8 NW 33 56 18 30 1009.4 - 0.0
02/02:24pm 19.1 12.5 10.1 56 4.8 NW 35 56 19 30 1009.4 - 0.0
02/02:00pm 19.4 12.4 10.1 55 5.0 NW 37 48 20 26 1009.6 - 0.0
02/01:43pm 19.7 12.7 9.9 53 5.2 NW 37 57 20 31 1009.7 - 0.0
02/01:42pm 19.7 12.7 9.9 53 5.2 NW 37 57 20 31 1009.7 - 0.0
02/01:30pm 19.6 11.8 9.8 53 5.2 NW 41 52 22 28 1009.9 - 0.0
02/01:00pm 18.7 11.2 9.5 55 4.9 NW 39 59 21 32 1010.3 - 0.0
02/12:38pm 19.5 12.7 9.4 52 5.3 NW 35 57 19 31 1010.3 - 0.0
02/12:37pm 19.5 12.7 9.4 52 5.3 NW 35 57 19 31 1010.3 - 0.0
02/12:30pm 19.3 12.7 10.0 55 5.0 NW 35 48 19 26 1010.6 - 0.0
02/12:21pm 19.1 12.8 10.9 59 4.5 NW 35 54 19 29 1010.7 - 0.0
02/12:20pm 19.1 12.8 10.9 59 4.5 NW 35 54 19 29 1010.7 - 0.0
02/12:00pm 18.3 11.9 10.7 61 4.1 NW 35 48 19 26 1011.0 1011.0 0.0
02/11:43am 18.6 11.7 10.2 58 4.5 NW 37 56 20 30 1011.0 - 0.0
02/11:42am 18.6 11.7 10.2 58 4.5 NW 37 56 20 30 1011.0 - 0.0
02/11:30am 18.4 12.7 11.0 62 4.0 NW 32 48 17 26 1011.3 - 0.0
02/11:00am 16.3 11.8 11.5 73 2.6 NW 26 35 14 19 1011.8 - 0.0
02/10:30am 17.7 10.8 8.8 56 4.6 NW 35 56 19 30 1012.1 - 0.0
02/10:26am 17.9 11.4 8.2 53 5.0 NW 32 56 17 30 1012.1 - 0.0
02/10:25am 17.9 11.4 8.2 53 5.0 NW 32 56 17 30 1012.1 - 0.0
02/10:00am 18.1 11.7 8.7 54 4.9 NW 32 48 17 26 1012.2 - 0.0
02/09:30am 17.5 10.9 8.6 56 4.6 NW 33 46 18 25 1012.5 - 0.0
02/09:00am 16.5 10.6 9.2 62 3.8 NW 30 44 16 24 1012.6 1012.6 0.0
02/08:30am 16.9 11.6 8.6 58 4.3 NW 26 39 14 21 1012.6 - 0.0
02/08:00am 15.4 11.2 7.4 59 4.0 NW 19 26 10 14 1012.5 - 0.0
02/07:30am 14.8 10.5 7.1 60 3.8 NW 19 28 10 15 1012.6 - 0.0
02/07:00am 13.6 10.4 6.9 64 3.2 NW 13 20 7 11 1012.7 - 0.0
02/06:30am 11.9 9.2 7.4 74 2.2 NNW 11 15 6 8 1012.6 - 0.0
02/06:00am 12.1 9.5 7.8 75 2.1 NNE 11 15 6 8 1012.9 1012.9 0.0
02/05:30am 12.7 10.0 7.2 69 2.7 N 11 15 6 8 1012.8 - 0.0
02/05:00am 12.0 9.3 7.3 73 2.3 N 11 15 6 8 1013.0 - 0.0
02/04:30am 12.3 9.3 7.6 73 2.3 N 13 17 7 9 1013.3 - 0.0
02/04:00am 13.1 10.5 7.8 70 2.6 NNE 11 17 6 9 1013.4 - 0.0
02/03:30am 13.3 10.4 8.2 71 2.5 N 13 15 7 8 1013.7 - 0.0
02/03:00am 13.7 10.3 7.5 66 3.0 N 15 20 8 11 1014.2 1014.2 0.0
02/02:30am 13.6 10.1 7.2 65 3.1 N 15 20 8 11 1014.6 - 0.0
02/02:00am 12.9 9.4 7.1 68 2.8 N 15 19 8 10 1014.8 - 0.0
02/01:30am 12.2 8.7 7.1 71 2.5 N 15 19 8 10 1015.0 - 0.0
02/01:00am 12.3 9.5 7.0 70 2.5 N 11 15 6 8 1015.3 - 0.0
02/12:30am 11.9 9.6 7.4 74 2.2 N 9 11 5 6 1015.6 - 0.0
02/12:00am 11.7 9.4 7.6 76 2.0 N 9 13 5 7 1016.0 1016.0 0.0
 
Date/Time
CST
Temp
°C
App
Temp
°C
Dew
Point
Rel
Hum
%
Delta-T
°C
Wind Press
QNH
hPa
Press
MSL
hPa
Rain
since 9 am
mm
Dir
 
Spd
km/h
Gust
km/h
Spd
kts
Gust
kts
01/11:30pm 12.2 9.8 6.9 70 2.5 N 9 11 5 6 1016.4 - 0.0
01/11:00pm 11.7 8.8 6.6 71 2.4 NNW 11 13 6 7 1016.6 - 0.0
01/10:30pm 11.7 9.3 6.8 72 2.3 NNW 9 11 5 6 1017.0 - 0.0
01/10:00pm 12.2 9.8 6.9 70 2.5 NNW 9 11 5 6 1017.3 - 0.0
01/09:30pm 12.4 10.0 7.1 70 2.6 NNW 9 11 5 6 1017.5 - 0.0
01/09:00pm 12.5 9.7 7.0 69 2.6 NNW 11 13 6 7 1017.6 1017.6 0.0
01/08:30pm 12.9 10.2 7.4 69 2.7 NNW 11 15 6 8 1017.6 - 0.0
01/08:00pm 13.3 11.4 7.7 69 2.8 NNW 7 9 4 5 1017.4 - 0.0
01/07:30pm 13.6 11.7 7.6 67 2.9 NNW 7 9 4 5 1017.4 - 0.0
01/07:00pm 14.1 11.8 7.4 64 3.3 W 9 13 5 7 1017.4 - 0.0
01/06:30pm 15.2 12.2 6.0 54 4.4 WSW 11 15 6 8 1017.2 - 0.0
01/06:00pm 15.2 13.0 6.0 54 4.4 WSW 7 13 4 7 1017.0 1017.0 0.0
01/05:30pm 15.3 11.7 6.6 56 4.2 SSW 15 20 8 11 1016.8 - 0.0
01/05:00pm 15.5 11.6 7.3 58 4.1 SSW 17 20 9 11 1016.8 - 0.0
01/04:30pm 15.9 11.3 6.6 54 4.5 SSW 20 24 11 13 1016.6 - 0.0
01/04:00pm 15.9 11.0 6.9 55 4.4 SSW 22 28 12 15 1016.5 - 0.0
01/03:30pm 16.4 11.5 6.8 53 4.7 SSW 22 28 12 15 1016.4 - 0.0
01/03:00pm 16.7 11.5 7.1 53 4.8 SW 24 32 13 17 1016.2 1016.2 0.0
01/02:30pm 16.6 10.5 6.7 52 4.9 SW 28 35 15 19 1016.1 - 0.0
01/02:00pm 17.6 11.5 6.8 49 5.4 SW 28 35 15 19 1016.1 - 0.0
01/01:30pm 16.5 10.5 6.9 53 4.7 SW 28 35 15 19 1016.1 - 0.0
01/01:00pm 17.4 11.0 6.9 50 5.2 SW 30 39 16 21 1015.9 - 0.0
01/12:30pm 16.7 9.9 7.1 53 4.8 SSW 32 39 17 21 1016.0 - 0.0
01/12:00pm 17.8 12.0 7.8 52 5.1 SW 28 35 15 19 1016.2 1016.2 0.0
01/11:30am 16.9 10.4 6.4 50 5.2 WSW 30 41 16 22 1016.5 - 0.0
01/11:00am 16.7 10.6 6.5 51 5.0 WSW 28 43 15 23 1016.5 - 0.0
01/10:30am 16.4 9.6 7.1 54 4.6 WSW 32 43 17 23 1016.4 - 0.0
01/10:00am 15.9 7.8 6.9 55 4.4 WSW 39 54 21 29 1015.9 - 0.0
01/09:30am 15.7 8.8 6.4 54 4.5 W 32 44 17 24 1015.9 - 0.0
01/09:00am 15.2 9.5 6.7 57 4.1 W 26 39 14 21 1015.6 1015.5 2.6
01/08:30am 14.4 8.4 7.0 61 3.6 W 28 37 15 20 1015.1 - 2.6
01/08:00am 13.6 7.9 6.9 64 3.2 W 26 35 14 19 1014.5 - 2.6
01/07:30am 13.1 7.0 6.7 65 3.1 W 28 35 15 19 1014.0 - 2.6
01/07:00am 13.2 7.2 7.0 66 3.0 W 28 41 15 22 1013.4 - 2.6
01/06:30am 13.0 7.4 7.0 67 2.9 W 26 37 14 20 1013.0 - 2.6
01/06:00am 13.4 6.6 6.7 64 3.2 W 32 43 17 23 1012.4 1012.4 2.6
01/05:30am 13.5 6.8 7.3 66 3.0 W 32 46 17 25 1011.5 - 2.6
01/05:00am 13.6 6.9 8.0 69 2.8 W 33 46 18 25 1011.1 - 2.6
01/04:30am 13.3 7.4 7.7 69 2.8 W 28 39 15 21 1010.6 - 2.6
01/04:00am 12.8 6.9 7.7 71 2.5 W 28 39 15 21 1010.0 - 2.6
01/03:30am 13.1 8.1 8.2 72 2.4 W 24 33 13 18 1009.5 - 2.6
01/03:00am 13.2 6.8 8.7 74 2.3 WNW 32 46 17 25 1009.1 1009.1 2.6
01/02:30am 12.9 8.1 9.0 77 2.0 W 24 33 13 18 1008.9 - 2.4
01/02:00am 12.7 7.9 9.0 78 1.9 WNW 24 33 13 18 1008.7 - 2.4
01/01:50am 13.2 7.4 9.5 78 1.9 W 30 48 16 26 1008.8 - 2.4
01/01:30am 14.4 7.8 8.6 68 2.9 W 33 44 18 24 1008.2 - 1.8
01/01:00am 14.3 7.8 8.9 70 2.7 W 33 48 18 26 1007.9 - 1.8
01/12:37am 14.4 7.6 9.2 71 2.7 W 35 54 19 29 1007.5 - 1.8
01/12:30am 14.5 7.3 9.3 71 2.7 W 37 52 20 28 1007.5 - 1.8
01/12:06am 14.4 6.2 9.6 73 2.5 W 43 61 23 33 1007.5 - 1.8
01/12:05am 14.4 6.2 9.6 73 2.5 W 43 61 23 33 1007.5 - 1.8
01/12:00am 14.3 5.0 9.3 72 2.6 W 48 63 26 34 1007.3 1007.3 1.8
 
Date/Time
CST
Temp
°C
App
Temp
°C
Dew
Point
Rel
Hum
%
Delta-T
°C
Wind Press
QNH
hPa
Press
MSL
hPa
Rain
since 9 am
mm
Dir
 
Spd
km/h
Gust
km/h
Spd
kts
Gust
kts
30/11:52pm 15.0 9.4 10.2 73 2.5 W 30 63 16 34 1007.3 - 1.8
30/11:51pm 15.0 9.4 10.2 73 2.5 W 30 63 16 34 1007.3 - 1.8
30/11:30pm 15.1 9.1 10.7 75 2.3 W 33 50 18 27 1007.3 - 1.8
30/11:12pm 15.7 7.4 10.2 70 2.9 WNW 44 78 24 42 1007.1 - 1.8
30/11:09pm 15.5 8.1 9.8 69 3.0 WNW 39 78 21 42 1007.2 - 1.8
30/11:04pm 15.6 4.3 9.5 67 3.2 WNW 59 78 32 42 1006.8 - 1.8
30/11:03pm 15.8 9.4 9.5 66 3.3 WNW 33 78 18 42 1006.8 - 1.8
30/11:00pm 16.1 10.9 10.2 68 3.1 WNW 28 52 15 28 1006.9 - 1.8
30/10:53pm 16.0 10.8 10.3 69 3.0 WNW 28 48 15 26 1006.9 - 1.8
30/10:52pm 16.0 10.8 10.3 69 3.0 WNW 28 48 15 26 1006.9 - 1.8
30/10:30pm 15.5 9.2 10.9 74 2.4 W 35 48 19 26 1006.9 - 1.8
30/10:00pm 16.6 8.3 10.2 66 3.4 WNW 44 67 24 36 1007.1 - 0.6
30/09:43pm 17.5 9.2 9.9 61 4.0 WNW 44 69 24 37 1006.3 - 0.2
30/09:40pm 17.6 10.3 10.2 62 3.9 WNW 39 50 21 27 1006.6 - 0.2
30/09:30pm 17.6 6.8 10.0 61 4.0 WNW 57 91 31 49 1006.0 - 0.2
30/09:25pm 17.5 6.9 9.9 61 4.0 WNW 56 91 30 49 1005.9 - 0.2
30/09:24pm 17.5 6.9 9.9 61 4.0 WNW 56 91 30 49 1005.9 - 0.2
30/09:00pm 19.8 9.8 7.9 46 6.2 WNW 50 69 27 37 1005.8 1005.6 0.0
30/08:30pm 20.3 11.8 8.6 47 6.1 WNW 43 65 23 35 1005.8 - 0.0
30/08:18pm 21.0 12.3 8.6 45 6.5 W 44 63 24 34 1005.4 - 0.0

Other Formats:

Comma delimited format used in spreadsheet applications
http://www.bom.gov.au/fwo/IDS60801/IDS60801.94677.axf

JavaScript Object Notation format (JSON) in row-major order
http://www.bom.gov.au/fwo/IDS60801/IDS60801.94677.json